Time;durP1;ratioP1;P1;durP2;ratioP2;P2;SDS_P1;SDS_P2;PMS_P1;PMS_P2;Temp;Humidity;BMP_temperature;BMP_pressure;BME280_temperature;BME280_humidity;BME280_pressure;Samples;Min_cycle;Max_cycle;Signal;HPM_P1;HPM_P2
2022/10/31 00:02:04;;;;;;;;;36.80;32.80;;;;;17.75;77.85;99097.72;6036942;28;97066;-61
2022/10/31 00:05:09;;;;;;;;;42.60;34.00;;;;;17.64;77.72;99071.47;6046786;28;96637;-60
2022/10/31 00:08:12;;;;;;;;;39.40;33.40;;;;;17.70;77.71;99091.41;6048268;28;96253;-60
2022/10/31 00:11:16;;;;;;;;;36.60;32.00;;;;;17.70;77.47;99094.97;6054014;28;98314;-60
2022/10/31 00:14:19;;;;;;;;;37.33;32.00;;;;;17.72;77.48;99098.28;6070663;28;96320;-59
2022/10/31 00:17:22;;;;;;;;;36.00;30.00;;;;;17.69;77.16;99092.53;6070435;28;96307;-61
2022/10/31 00:20:27;;;;;;;;;35.00;31.00;;;;;17.66;77.45;99091.13;6070207;28;96349;-60
2022/10/31 00:23:30;;;;;;;;;34.50;32.00;;;;;17.66;77.19;99093.84;6071339;28;96386;-60
2022/10/31 00:26:34;;;;;;;;;35.40;31.00;;;;;17.68;76.87;99093.59;6072637;28;97168;-60
2022/10/31 00:29:37;;;;;;;;;35.20;31.40;;;;;17.66;76.38;99093.84;6074697;28;96341;-59
2022/10/31 00:32:40;;;;;;;;;34.00;30.00;;;;;17.67;76.23;99094.69;6067010;28;97691;-60
2022/10/31 00:35:50;;;;;;;;;33.00;29.00;;;;;17.57;76.05;99089.94;6069009;28;96351;-60
2022/10/31 00:38:53;;;;;;;;;35.80;30.40;;;;;17.67;75.77;99098.25;6071092;28;96938;-61
2022/10/31 00:41:57;;;;;;;;;31.00;28.00;;;;;17.62;75.85;99098.19;6070662;28;96236;-59
2022/10/31 00:45:00;;;;;;;;;35.00;30.60;;;;;17.58;75.84;99097.06;6070867;28;96425;-60
2022/10/31 00:48:05;;;;;;;;;32.60;30.00;;;;;17.54;76.25;99108.75;6068813;28;96724;-60
2022/10/31 00:51:10;;;;;;;;;30.20;28.40;;;;;17.55;75.93;99094.84;6068948;28;96371;-60
2022/10/31 00:54:15;;;;;;;;;33.00;29.00;;;;;17.55;75.76;99107.63;6070696;28;96691;-61
2022/10/31 00:57:19;;;;;;;;;31.00;29.00;;;;;17.50;75.89;99107.59;6068167;28;96275;-60
2022/10/31 01:00:23;;;;;;;;;29.40;27.40;;;;;17.48;75.86;99118.78;6069011;28;97056;-61
2022/10/31 01:03:28;;;;;;;;;29.50;28.00;;;;;17.53;75.45;99112.56;6068800;28;96575;-60
2022/10/31 01:06:33;;;;;;;;;30.60;27.60;;;;;17.51;75.42;99115.53;6069131;28;96894;-59
2022/10/31 01:09:36;;;;;;;;;29.00;26.60;;;;;17.49;75.07;99108.72;6067590;28;96741;-61
2022/10/31 01:12:41;;;;;;;;;26.00;25.00;;;;;17.49;75.33;99111.44;6073334;28;96230;-61
2022/10/31 01:15:44;;;;;;;;;32.40;28.00;;;;;17.44;75.01;99101.31;6074055;28;96911;-60
2022/10/31 01:18:48;;;;;;;;;28.20;25.80;;;;;17.43;75.07;99109.75;6056489;28;97337;-61
2022/10/31 01:21:55;;;;;;;;;31.67;28.67;;;;;17.35;75.33;99100.13;6074848;28;97047;-59
2022/10/31 01:24:58;;;;;;;;;29.40;26.00;;;;;17.36;75.36;99099.06;6074118;28;96397;-61
2022/10/31 01:28:01;;;;;;;;;31.50;28.00;;;;;17.36;75.05;99103.69;6072513;28;96399;-61
2022/10/31 01:31:07;;;;;;;;;30.80;29.20;;;;;17.35;75.31;99102.06;6073392;28;96561;-60
2022/10/31 01:34:14;;;;;;;;;32.25;28.25;;;;;17.38;74.83;99098.81;6072817;28;96278;-59
2022/10/31 01:37:19;;;;;;;;;30.00;24.33;;;;;17.41;74.43;99098.25;6073891;28;96417;-61
2022/10/31 01:40:22;;;;;;;;;28.50;26.50;;;;;17.39;74.44;99092.28;6072535;28;96497;-60
2022/10/31 01:43:43;;;;;;;;;30.60;26.00;;;;;17.35;74.15;99094.69;6050327;28;97073;-60
2022/10/31 01:46:52;;;;;;;;;29.25;28.00;;;;;17.36;73.95;99088.16;6073667;28;96273;-60
2022/10/31 01:50:00;;;;;;;;;30.00;29.00;;;;;17.38;73.87;99091.44;6073018;28;96332;-60
2022/10/31 01:53:08;;;;;;;;;29.00;27.00;;;;;17.31;73.66;99091.66;6072521;28;96346;-60
2022/10/31 01:56:14;;;;;;;;;33.40;27.40;;;;;17.35;73.53;99091.94;6067308;28;96341;-60
2022/10/31 01:59:21;;;;;;;;;32.25;28.50;;;;;17.23;74.42;99083.16;6073861;28;96417;-60
2022/10/31 02:02:26;;;;;;;;;31.00;29.50;;;;;17.18;74.58;99088.56;6072939;28;96417;-61
2022/10/31 02:05:31;;;;;;;;;31.80;28.00;;;;;17.14;74.63;99082.00;6072661;28;96441;-60
2022/10/31 02:08:38;;;;;;;;;30.25;27.75;;;;;17.12;74.72;99092.31;6071993;28;96699;-61
2022/10/31 02:11:43;;;;;;;;;26.75;25.00;;;;;17.03;75.19;99094.69;6071165;28;96647;-60
2022/10/31 02:14:48;;;;;;;;;34.00;27.00;;;;;16.91;75.67;99094.00;6071080;28;96933;-60
2022/10/31 02:17:52;;;;;;;;;28.75;26.75;;;;;16.89;76.02;99091.56;6054296;28;96744;-59
2022/10/31 02:21:08;;;;;;;;;30.50;28.50;;;;;16.85;76.24;99095.88;6072728;28;97362;-60
2022/10/31 02:24:51;;;;;;;;;31.00;29.00;;;;;16.81;76.38;99094.72;6071844;28;96907;-60
2022/10/31 02:28:26;;;;;;;;;31.00;29.40;;;;;16.79;76.52;99096.09;6057416;28;97566;-61
2022/10/31 02:31:40;;;;;;;;;31.00;27.00;;;;;16.78;76.63;99105.31;6072354;28;96433;-60
2022/10/31 02:34:55;;;;;;;;;29.50;27.50;;;;;16.80;76.28;99104.00;6071159;28;96395;-59
2022/10/31 02:38:10;;;;;;;;;27.60;25.60;;;;;16.85;75.90;99111.41;6070846;28;96522;-60
2022/10/31 02:41:26;;;;;;;;;36.20;28.60;;;;;16.86;75.71;99107.56;6087815;28;96274;-60
2022/10/31 02:44:43;;;;;;;;;32.00;28.00;;;;;16.79;76.15;99115.16;6071244;28;96897;-60
2022/10/31 02:47:51;;;;;;;;;33.40;28.40;;;;;16.82;75.85;99112.72;6072102;28;97441;-60
2022/10/31 02:50:58;;;;;;;;;32.50;29.00;;;;;16.79;76.05;99110.53;6073896;28;96283;-61
2022/10/31 02:54:02;;;;;;;;;32.40;28.60;;;;;16.81;76.15;99119.25;6072562;28;96960;-60
2022/10/31 02:57:08;;;;;;;;;30.00;28.00;;;;;16.77;76.32;99114.56;6070711;28;96703;-60
2022/10/31 03:00:13;;;;;;;;;34.00;29.40;;;;;16.69;76.96;99125.94;6064421;28;96507;-62
2022/10/31 03:03:26;;;;;;;;;32.00;27.00;;;;;16.73;76.64;99118.88;6067890;28;96165;-60
2022/10/31 03:06:34;;;;;;;;;32.00;30.00;;;;;16.64;76.89;99120.44;6070849;28;96240;-61
2022/10/31 03:09:44;;;;;;;;;35.40;30.00;;;;;16.61;76.71;99118.22;6071856;28;96268;-60
2022/10/31 03:12:54;;;;;;;;;32.60;29.40;;;;;16.60;76.51;99120.13;6071521;28;96508;-59
2022/10/31 03:16:06;;;;;;;;;32.40;29.80;;;;;16.55;76.58;99111.88;6086505;28;96367;-59
2022/10/31 03:19:15;;;;;;;;;31.00;29.00;;;;;16.54;77.15;99118.38;6085452;28;96395;-60
2022/10/31 03:22:23;;;;;;;;;29.00;26.00;;;;;16.51;77.27;99127.06;6060197;28;96289;-60
2022/10/31 03:25:28;;;;;;;;;34.20;30.00;;;;;16.44;78.03;99121.81;6070513;28;97424;-60
2022/10/31 03:28:37;;;;;;;;;35.60;30.00;;;;;16.35;78.35;99125.22;6070046;28;96249;-60
2022/10/31 03:31:48;;;;;;;;;35.00;30.40;;;;;16.37;78.67;99129.31;6072071;28;96936;-60
2022/10/31 03:34:58;;;;;;;;;34.50;28.75;;;;;16.29;79.46;99126.22;6083187;28;96925;-60
2022/10/31 03:38:04;;;;;;;;;32.20;29.00;;;;;16.29;79.91;99132.50;6088516;28;96847;-60
2022/10/31 03:41:17;;;;;;;;;34.00;31.00;;;;;16.33;80.05;99133.63;6072494;28;96346;-60
2022/10/31 03:44:23;;;;;;;;;34.00;30.00;;;;;16.40;79.60;99138.88;6070192;28;96417;-60
2022/10/31 03:47:35;;;;;;;;;34.20;29.20;;;;;16.41;79.42;99129.66;6070337;28;96309;-59
2022/10/31 03:50:50;;;;;;;;;33.00;30.00;;;;;16.42;79.17;99134.81;6086831;28;96598;-60
2022/10/31 03:53:58;;;;;;;;;30.50;28.25;;;;;16.45;79.00;99137.06;6085888;28;96500;-61
2022/10/31 03:57:09;;;;;;;;;30.00;28.00;;;;;16.43;78.85;99136.47;6053287;28;96693;-60
2022/10/31 04:00:15;;;;;;;;;33.00;29.00;;;;;16.53;78.08;99140.41;6084619;28;96631;-59
2022/10/31 04:03:26;;;;;;;;;32.50;28.00;;;;;16.52;77.60;99139.56;6069584;28;96327;-59
2022/10/31 04:06:37;;;;;;;;;31.00;28.00;;;;;16.47;77.46;99140.34;6069289;28;96960;-60
2022/10/31 04:09:44;;;;;;;;;30.80;29.00;;;;;16.46;77.30;99141.44;6071288;28;96338;-60
2022/10/31 04:12:53;;;;;;;;;29.25;27.75;;;;;16.43;77.49;99132.94;6085377;28;96782;-59
2022/10/31 04:16:00;;;;;;;;;31.00;29.00;;;;;16.37;77.39;99136.69;6067775;28;97559;-60
2022/10/31 04:19:05;;;;;;;;;30.60;27.60;;;;;16.38;77.46;99130.97;6069513;28;96320;-63
2022/10/31 04:22:09;;;;;;;;;29.60;27.00;;;;;16.33;77.50;99135.53;6052801;28;97218;-61
2022/10/31 04:25:13;;;;;;;;;34.60;30.00;;;;;16.32;77.37;99129.25;6069643;28;96974;-60
2022/10/31 04:28:16;;;;;;;;;33.25;30.25;;;;;16.23;77.92;99149.00;6070501;28;96474;-61
2022/10/31 04:31:21;;;;;;;;;28.40;25.00;;;;;16.16;78.12;99141.03;6068996;28;96318;-60
2022/10/31 04:34:25;;;;;;;;;28.75;26.00;;;;;16.19;78.16;99139.69;6067711;28;96758;-61
2022/10/31 04:37:30;;;;;;;;;29.00;26.00;;;;;16.17;78.18;99145.41;6069614;28;96478;-60
2022/10/31 04:40:34;;;;;;;;;30.80;26.20;;;;;16.07;79.05;99139.00;6069004;28;97293;-61
2022/10/31 04:44:09;;;;;;;;;28.00;24.60;;;;;15.98;79.13;99138.59;6068617;28;96678;-60
2022/10/31 04:47:12;;;;;;;;;32.40;28.40;;;;;16.03;79.02;99138.66;6070165;28;96644;-62
2022/10/31 04:50:16;;;;;;;;;29.75;25.00;;;;;16.02;79.20;99137.88;6071530;28;96951;-60
2022/10/31 04:53:21;;;;;;;;;32.80;30.40;;;;;15.97;79.65;99140.50;6074059;28;96467;-59
2022/10/31 04:57:03;;;;;;;;;33.60;30.40;;;;;15.94;80.11;99142.88;6042370;28;96864;-59
2022/10/31 05:00:08;;;;;;;;;35.00;29.00;;;;;15.87;80.20;99134.09;6035221;28;98006;-61
2022/10/31 05:03:12;;;;;;;;;29.00;27.00;;;;;15.86;80.74;99144.16;6069518;28;95975;-60
2022/10/31 05:06:16;;;;;;;;;34.00;30.00;;;;;15.77;81.33;99145.66;6054450;28;97454;-60
2022/10/31 05:09:21;;;;;;;;;33.20;29.60;;;;;15.82;81.13;99142.19;6073023;28;96897;-60
2022/10/31 05:12:26;;;;;;;;;31.60;29.00;;;;;15.83;80.92;99138.41;6055712;28;97032;-61
2022/10/31 05:15:52;;;;;;;;;31.80;26.20;;;;;15.79;81.77;99142.66;6052475;28;96447;-59
2022/10/31 05:19:14;;;;;;;;;28.00;26.60;;;;;15.82;80.77;99150.34;6073218;28;96852;-60
2022/10/31 05:22:36;;;;;;;;;27.50;25.75;;;;;15.75;80.96;99153.22;6074408;28;96578;-60
2022/10/31 05:25:42;;;;;;;;;27.00;25.00;;;;;15.74;80.99;99150.75;6071782;28;96492;-60
2022/10/31 05:28:45;;;;;;;;;27.00;24.75;;;;;15.81;80.69;99154.13;6071153;28;96860;-61
2022/10/31 05:31:48;;;;;;;;;31.00;28.00;;;;;15.78;80.43;99173.66;6068713;28;96325;-60
2022/10/31 05:35:20;;;;;;;;;27.00;24.75;;;;;15.81;80.03;99162.28;6070431;28;97362;-61
2022/10/31 05:38:58;;;;;;;;;30.00;26.00;;;;;15.78;79.75;99163.59;6065034;28;96507;-60
2022/10/31 05:42:16;;;;;;;;;32.25;27.00;;;;;15.81;79.48;99165.00;6070727;28;96302;-60
2022/10/31 05:45:21;;;;;;;;;28.40;24.00;;;;;15.90;78.75;99168.94;6072654;28;96296;-60
2022/10/31 05:48:32;;;;;;;;;26.20;24.80;;;;;15.93;78.34;99176.59;6073684;28;96379;-61
2022/10/31 05:51:54;;;;;;;;;27.00;24.00;;;;;15.86;78.42;99182.22;6071864;28;96379;-61
2022/10/31 05:55:06;;;;;;;;;24.80;23.00;;;;;16.00;78.13;99178.06;6063041;28;97085;-60
2022/10/31 05:58:11;;;;;;;;;27.60;22.60;;;;;16.18;76.62;99179.69;6055349;28;98567;-60
2022/10/31 06:01:19;;;;;;;;;29.00;26.20;;;;;16.24;75.95;99188.72;6073518;28;97019;-60
2022/10/31 06:04:22;;;;;;;;;28.80;25.00;;;;;16.58;74.38;99192.19;6072528;28;96273;-60
2022/10/31 06:07:26;;;;;;;;;28.00;25.50;;;;;17.18;71.05;99195.63;6083207;28;96331;-61
2022/10/31 06:10:29;;;;;;;;;29.00;27.00;;;;;17.75;67.20;99197.81;6057422;28;97095;-61
2022/10/31 06:13:34;;;;;;;;;28.00;24.50;;;;;18.63;62.93;99201.66;6089267;28;97885;-61
2022/10/31 06:16:49;;;;;;;;;29.20;27.00;;;;;19.57;60.03;99212.34;6080016;28;96406;-59
2022/10/31 06:20:11;;;;;;;;;25.00;23.00;;;;;20.48;56.50;99215.00;6097502;28;96234;-60
2022/10/31 06:23:27;;;;;;;;;27.00;25.00;;;;;21.25;52.92;99226.53;6080225;28;96264;-61
2022/10/31 06:26:50;;;;;;;;;28.00;24.00;;;;;22.15;48.72;99226.94;6076795;28;96787;-60
2022/10/31 06:29:55;;;;;;;;;25.00;23.00;;;;;22.85;46.58;99231.72;6078300;28;96869;-60
2022/10/31 06:33:11;;;;;;;;;25.00;22.00;;;;;23.50;44.25;99228.41;6074701;28;96652;-60
2022/10/31 06:36:19;;;;;;;;;23.00;21.40;;;;;24.16;43.04;99225.38;6072611;28;96313;-61
2022/10/31 06:39:22;;;;;;;;;24.40;23.00;;;;;24.74;40.84;99235.91;6082222;28;97666;-60
2022/10/31 06:42:26;;;;;;;;;23.40;22.00;;;;;25.27;39.59;99228.72;6080298;28;96404;-62
2022/10/31 06:45:31;;;;;;;;;24.00;22.00;;;;;26.08;37.86;99243.44;6078400;28;96376;-60
2022/10/31 06:48:53;;;;;;;;;25.20;22.00;;;;;26.53;36.54;99244.22;6098084;28;96426;-60
2022/10/31 06:52:15;;;;;;;;;25.20;22.80;;;;;27.15;35.40;99227.53;6079533;28;96924;-60
2022/10/31 06:55:20;;;;;;;;;23.00;22.00;;;;;27.51;34.21;99241.91;6094138;28;96924;-60
2022/10/31 06:58:23;;;;;;;;;23.00;20.00;;;;;28.19;33.25;99243.09;6079557;28;97053;-61
2022/10/31 07:01:32;;;;;;;;;24.00;22.50;;;;;28.94;32.21;99244.31;6083318;28;96464;-61
2022/10/31 07:04:37;;;;;;;;;21.60;20.60;;;;;29.52;31.34;99231.56;6092497;28;96297;-60
2022/10/31 07:07:40;;;;;;;;;25.40;22.00;;;;;30.14;29.42;99242.66;6091809;28;96467;-62
2022/10/31 07:10:51;;;;;;;;;23.80;22.00;;;;;30.78;28.95;99247.72;6094138;28;96986;-60
2022/10/31 07:13:55;;;;;;;;;21.80;20.20;;;;;31.28;28.11;99247.38;6076237;28;97232;-62
2022/10/31 07:17:00;;;;;;;;;26.00;20.50;;;;;31.76;28.02;99252.06;6077048;28;96588;-60
2022/10/31 07:20:11;;;;;;;;;22.25;20.25;;;;;31.94;26.91;99253.41;6078307;28;96174;-60
2022/10/31 07:23:14;;;;;;;;;23.00;21.00;;;;;32.48;25.95;99247.34;6093889;28;96576;-61
2022/10/31 07:26:22;;;;;;;;;20.50;19.00;;;;;32.99;25.25;99262.25;6077512;28;96422;-61
2022/10/31 07:29:25;;;;;;;;;21.25;19.00;;;;;33.48;24.59;99259.84;6091685;28;96387;-61
2022/10/31 07:32:38;;;;;;;;;20.80;19.80;;;;;34.16;23.87;99257.34;6091238;28;96828;-62
2022/10/31 07:35:42;;;;;;;;;20.60;19.00;;;;;34.62;23.25;99254.66;6092084;28;96340;-61
2022/10/31 07:38:48;;;;;;;;;24.00;23.00;;;;;34.73;22.26;99259.31;6091939;28;96442;-62
2022/10/31 07:41:51;;;;;;;;;21.00;20.00;;;;;35.36;21.92;99260.75;6093020;28;96530;-60
2022/10/31 07:44:55;;;;;;;;;21.20;19.80;;;;;35.90;21.72;99255.53;6094755;28;97519;-61
2022/10/31 07:48:39;;;;;;;;;25.20;21.80;;;;;36.13;21.22;99258.22;6069357;28;97006;-60
2022/10/31 07:52:01;;;;;;;;;22.00;20.00;;;;;36.72;20.53;99262.09;6070380;28;96275;-62
2022/10/31 07:55:23;;;;;;;;;23.33;20.00;;;;;37.52;20.45;99258.34;6095332;28;96416;-61
2022/10/31 07:58:26;;;;;;;;;21.00;20.20;;;;;37.77;19.53;99252.88;6094233;28;98000;-63
2022/10/31 08:01:30;;;;;;;;;21.00;20.00;;;;;37.96;19.23;99257.38;6096034;28;96214;-62
2022/10/31 08:05:01;;;;;;;;;21.00;20.00;;;;;38.41;18.94;99251.13;6077493;28;96284;-61
2022/10/31 08:08:05;;;;;;;;;20.00;19.00;;;;;38.76;18.24;99255.19;6095153;28;96445;-61
2022/10/31 08:11:09;;;;;;;;;22.25;21.00;;;;;39.04;18.30;99257.28;6095254;28;96826;-61
2022/10/31 08:14:13;;;;;;;;;22.60;20.00;;;;;39.30;18.02;99262.47;6074256;28;97064;-61
2022/10/31 08:17:17;;;;;;;;;20.00;17.00;;;;;39.59;17.98;99266.88;6077384;28;96393;-61
2022/10/31 08:20:32;;;;;;;;;20.25;18.25;;;;;39.72;17.75;99264.44;6080618;28;96342;-61
2022/10/31 08:23:35;;;;;;;;;20.00;18.00;;;;;39.75;17.38;99261.63;6071278;28;96451;-61
2022/10/31 08:26:39;;;;;;;;;21.00;19.00;;;;;40.15;16.91;99257.44;6092595;28;96926;-62
2022/10/31 08:29:45;;;;;;;;;19.00;18.00;;;;;40.29;17.23;99261.41;6096648;28;96904;-61
2022/10/31 08:32:57;;;;;;;;;18.60;17.00;;;;;40.63;16.81;99266.06;6096110;28;96782;-62
2022/10/31 08:36:21;;;;;;;;;19.00;18.00;;;;;40.94;16.81;99258.59;6099212;28;96285;-61
2022/10/31 08:39:50;;;;;;;;;18.00;15.00;;;;;40.98;15.68;99258.53;6097888;28;97051;-61
2022/10/31 08:42:58;;;;;;;;;15.00;15.00;;;;;41.00;16.14;99253.28;6097429;28;96889;-62
2022/10/31 08:46:01;;;;;;;;;15.00;14.00;;;;;41.06;15.99;99260.91;6094645;28;96197;-63
2022/10/31 08:49:05;;;;;;;;;16.00;15.75;;;;;41.16;16.28;99252.75;6093759;28;96407;-61
2022/10/31 08:52:10;;;;;;;;;19.00;16.00;;;;;41.10;15.91;99243.94;6078265;28;96735;-62
2022/10/31 08:55:18;;;;;;;;;16.00;15.00;;;;;41.13;16.09;99239.44;6079023;28;96882;-62
2022/10/31 08:58:38;;;;;;;;;18.00;18.00;;;;;41.26;16.27;99246.19;6079551;28;97259;-61
2022/10/31 09:01:45;;;;;;;;;18.20;15.20;;;;;41.77;15.73;99243.25;6081302;28;96705;-61
2022/10/31 09:04:50;;;;;;;;;15.60;15.00;;;;;41.92;15.57;99244.69;6081911;28;97537;-61
2022/10/31 09:07:58;;;;;;;;;16.50;16.00;;;;;41.99;15.26;99243.78;6099050;28;96390;-62
2022/10/31 09:11:02;;;;;;;;;15.50;14.00;;;;;42.33;15.06;99243.75;6081198;28;96289;-62
2022/10/31 09:14:24;;;;;;;;;14.50;12.50;;;;;42.56;14.47;99246.69;6098387;28;96708;-61
2022/10/31 09:17:53;;;;;;;;;13.40;12.80;;;;;42.78;14.97;99245.13;6094925;28;96240;-62
2022/10/31 09:21:06;;;;;;;;;12.00;12.00;;;;;43.19;14.61;99246.91;6093329;28;96758;-61
2022/10/31 09:24:11;;;;;;;;;12.40;11.00;;;;;43.13;14.41;99243.75;6098470;28;96359;-62
2022/10/31 09:27:14;;;;;;;;;12.20;11.00;;;;;43.08;14.01;99240.59;6081061;28;96309;-61
2022/10/31 09:30:19;;;;;;;;;13.00;12.00;;;;;43.10;13.91;99240.97;6097496;28;96373;-62
2022/10/31 09:33:24;;;;;;;;;12.80;10.00;;;;;43.14;13.80;99239.69;6096416;28;96746;-62
2022/10/31 09:36:48;;;;;;;;;12.50;11.50;;;;;43.10;14.16;99247.47;6098169;28;97015;-63
2022/10/31 09:39:58;;;;;;;;;12.00;11.00;;;;;43.09;14.16;99239.38;6096902;28;97501;-63
2022/10/31 09:43:20;;;;;;;;;11.40;10.00;;;;;42.91;13.86;99239.63;6110925;28;96846;-62
2022/10/31 09:46:50;;;;;;;;;12.00;10.60;;;;;43.15;14.22;99249.00;6106179;28;96351;-62
2022/10/31 09:50:08;;;;;;;;;12.00;11.00;;;;;43.26;14.17;99243.91;6097107;28;96531;-62
2022/10/31 09:53:31;;;;;;;;;10.50;10.00;;;;;43.42;14.13;99251.75;6096586;28;96541;-62
2022/10/31 09:56:37;;;;;;;;;10.00;8.00;;;;;43.34;13.88;99245.41;6095448;28;97510;-63
2022/10/31 09:59:42;;;;;;;;;10.40;9.00;;;;;43.37;13.71;99255.88;6083225;28;96062;-62
2022/10/31 10:02:50;;;;;;;;;11.00;11.00;;;;;43.48;14.05;99250.84;6096464;28;96520;-62
2022/10/31 10:06:00;;;;;;;;;9.00;9.00;;;;;43.57;13.59;99245.38;6075439;28;96398;-63
2022/10/31 10:09:23;;;;;;;;;10.00;10.00;;;;;43.62;13.50;99249.75;6074442;28;96582;-64
2022/10/31 10:13:06;;;;;;;;;12.00;12.00;;;;;43.57;13.84;99236.88;6073848;28;96495;-63
2022/10/31 10:16:32;;;;;;;;;10.00;10.00;;;;;43.43;13.84;99251.31;6071559;28;96699;-63
2022/10/31 10:19:53;;;;;;;;;9.00;8.25;;;;;43.33;13.58;99243.00;6092448;28;96355;-63
2022/10/31 10:23:09;;;;;;;;;8.00;8.00;;;;;43.47;13.92;99245.59;6096971;28;96337;-63
2022/10/31 10:26:18;;;;;;;;;10.60;9.60;;;;;42.86;14.09;99248.66;6101263;28;97305;-63
2022/10/31 10:29:35;;;;;;;;;10.20;9.00;;;;;42.85;13.96;99252.72;6090578;28;96292;-63
2022/10/31 10:32:44;;;;;;;;;9.00;9.00;;;;;42.79;14.11;99240.25;6094175;28;96330;-62
2022/10/31 10:35:59;;;;;;;;;9.00;8.00;;;;;42.77;14.33;99242.72;6075293;28;96641;-64
2022/10/31 10:39:09;;;;;;;;;8.40;8.40;;;;;43.06;14.06;99243.03;6073005;28;96273;-63
2022/10/31 10:49:07;;;;;;;;;8.80;7.80;;;;;42.83;14.06;99232.47;6096316;28;96282;-62
2022/10/31 10:52:24;;;;;;;;;9.00;8.00;;;;;42.90;13.92;99234.41;6096834;28;96248;-63
2022/10/31 10:55:54;;;;;;;;;11.00;10.20;;;;;42.72;14.23;99235.50;6096448;28;96376;-63
2022/10/31 10:58:58;;;;;;;;;10.00;9.00;;;;;42.73;14.04;99213.59;6096232;28;96428;-63
2022/10/31 11:02:15;;;;;;;;;10.00;9.00;;;;;42.83;14.15;99229.66;6091919;28;96219;-63
2022/10/31 11:05:29;;;;;;;;;8.40;8.40;;;;;42.75;13.72;99222.50;6074481;28;96392;-62
2022/10/31 11:08:34;;;;;;;;;8.80;8.20;;;;;42.95;14.05;99214.88;6057834;28;96641;-63
2022/10/31 11:11:39;;;;;;;;;7.80;7.00;;;;;42.91;13.71;99219.78;6055559;28;97872;-63
2022/10/31 11:14:50;;;;;;;;;10.75;10.00;;;;;42.88;14.00;99228.34;6081031;28;96374;-62
2022/10/31 11:17:57;;;;;;;;;9.80;8.40;;;;;42.97;13.63;99220.09;6097247;28;96340;-62
2022/10/31 11:21:02;;;;;;;;;9.00;8.00;;;;;43.19;13.55;99218.53;6090024;28;97072;-60
2022/10/31 11:24:15;;;;;;;;;9.00;8.00;;;;;43.22;13.71;99216.84;6085300;28;96561;-65
2022/10/31 11:27:22;;;;;;;;;9.00;9.00;;;;;43.35;13.44;99218.59;6083570;28;96553;-63
2022/10/31 11:30:26;;;;;;;;;11.00;9.50;;;;;43.28;13.78;99227.25;6091581;28;96197;-62
2022/10/31 11:33:35;;;;;;;;;8.60;7.60;;;;;43.26;13.90;99220.41;6089968;28;96519;-60
2022/10/31 11:36:43;;;;;;;;;8.00;8.00;;;;;42.95;13.45;99220.53;6097125;28;96462;-61
2022/10/31 11:39:53;;;;;;;;;9.40;9.00;;;;;42.49;13.62;99204.25;6095325;28;96550;-63
2022/10/31 11:42:59;;;;;;;;;10.00;9.00;;;;;42.30;14.30;99208.59;6077956;28;96274;-65
2022/10/31 11:46:10;;;;;;;;;10.00;9.00;;;;;41.94;14.37;99204.59;6084841;28;96394;-63
2022/10/31 11:49:19;;;;;;;;;8.00;8.00;;;;;41.80;14.89;99208.41;6081873;28;96331;-63
2022/10/31 11:52:26;;;;;;;;;9.00;8.00;;;;;41.89;14.78;99202.25;6080430;28;96350;-65
2022/10/31 11:55:35;;;;;;;;;10.25;10.00;;;;;41.80;14.93;99202.75;6085739;28;97324;-60
2022/10/31 11:58:38;;;;;;;;;11.00;9.00;;;;;41.65;14.90;99201.31;6071640;28;97161;-62
2022/10/31 12:01:48;;;;;;;;;10.00;10.00;;;;;41.57;15.27;99193.31;6091227;28;97585;-60
2022/10/31 12:05:00;;;;;;;;;11.00;11.00;;;;;41.30;15.47;99196.81;6095985;28;96263;-62
2022/10/31 12:08:04;;;;;;;;;10.00;9.33;;;;;41.13;15.54;99192.16;6079896;28;96219;-61
2022/10/31 12:11:18;;;;;;;;;10.20;10.00;;;;;40.81;15.86;99169.03;6084381;28;96338;-60
2022/10/31 12:14:34;;;;;;;;;12.40;11.00;;;;;40.39;16.33;99187.09;6088802;28;96360;-61
2022/10/31 12:17:45;;;;;;;;;13.50;12.00;;;;;39.69;16.67;99187.00;6077624;28;96899;-60
2022/10/31 12:21:00;;;;;;;;;12.00;10.20;;;;;39.00;17.69;99178.31;6076955;28;96306;-61
2022/10/31 12:24:19;;;;;;;;;12.00;12.00;;;;;38.31;18.31;99177.88;6074945;28;96441;-63
2022/10/31 12:27:31;;;;;;;;;11.00;11.00;;;;;37.60;18.69;99175.59;6077109;28;97603;-63
2022/10/31 12:30:47;;;;;;;;;12.60;11.00;;;;;36.85;19.63;99163.03;6083163;28;97059;-62
2022/10/31 12:34:02;;;;;;;;;11.00;11.00;;;;;36.32;19.90;99165.38;6093378;28;96251;-63
2022/10/31 12:37:16;;;;;;;;;11.00;11.00;;;;;35.83;20.77;99162.00;6093776;28;96287;-62
2022/10/31 12:40:36;;;;;;;;;13.00;12.00;;;;;35.22;21.31;99163.22;6092834;28;96647;-62
2022/10/31 12:43:47;;;;;;;;;12.00;11.00;;;;;34.72;21.82;99172.84;6092559;28;98003;-61
2022/10/31 12:47:07;;;;;;;;;12.80;11.80;;;;;34.26;21.82;99170.00;6084926;28;96342;-62
2022/10/31 12:50:23;;;;;;;;;12.00;11.40;;;;;34.09;22.78;99159.28;6080415;28;97521;-63
2022/10/31 12:53:40;;;;;;;;;14.00;13.00;;;;;33.92;22.87;99159.75;6077522;28;96558;-61
2022/10/31 12:56:54;;;;;;;;;12.75;11.25;;;;;33.75;23.06;99157.41;6076148;28;96258;-63
2022/10/31 13:00:03;;;;;;;;;12.00;12.00;;;;;33.53;23.53;99154.16;6083810;28;97436;-63
2022/10/31 13:03:25;;;;;;;;;13.00;11.00;;;;;33.25;23.40;99149.94;6081118;28;96702;-62
2022/10/31 13:06:34;;;;;;;;;11.00;10.00;;;;;32.96;23.91;99132.50;6085798;28;96653;-63
2022/10/31 13:09:47;;;;;;;;;12.40;11.00;;;;;32.92;24.25;99155.94;6095038;28;96905;-62
2022/10/31 13:12:55;;;;;;;;;13.40;12.00;;;;;32.86;24.36;99143.44;6079656;28;96889;-61
2022/10/31 13:16:04;;;;;;;;;10.80;10.40;;;;;32.78;24.38;99152.81;6087296;28;96603;-62
2022/10/31 13:19:15;;;;;;;;;12.00;10.00;;;;;32.63;25.02;99149.69;6084135;28;96493;-62
2022/10/31 13:22:23;;;;;;;;;12.00;11.00;;;;;32.35;24.92;99146.16;6085770;28;96369;-61
2022/10/31 13:25:34;;;;;;;;;11.00;10.00;;;;;32.17;25.12;99151.25;6096727;28;96336;-61
2022/10/31 13:28:44;;;;;;;;;12.20;11.00;;;;;31.89;25.63;99150.47;6074287;28;97251;-62
2022/10/31 13:31:49;;;;;;;;;11.00;10.00;;;;;31.79;25.63;99151.81;6087908;28;96291;-63
2022/10/31 13:34:57;;;;;;;;;11.40;10.00;;;;;31.77;25.50;99151.34;6081013;28;96351;-62
2022/10/31 13:38:12;;;;;;;;;10.00;9.50;;;;;31.69;25.93;99141.16;6073140;28;96305;-61
2022/10/31 13:41:31;;;;;;;;;11.50;10.50;;;;;31.65;26.41;99145.84;6087168;28;96343;-63
2022/10/31 13:44:38;;;;;;;;;12.00;9.80;;;;;31.55;26.18;99145.50;6098015;28;98230;-62
2022/10/31 13:47:42;;;;;;;;;12.00;11.00;;;;;31.41;26.40;99154.25;6086628;28;96956;-61
2022/10/31 13:50:58;;;;;;;;;14.00;11.60;;;;;31.21;26.79;99142.13;6096962;28;96370;-61
2022/10/31 13:54:07;;;;;;;;;14.40;12.40;;;;;31.07;26.90;99138.91;6090412;28;97274;-62
2022/10/31 13:57:19;;;;;;;;;11.40;9.60;;;;;30.94;26.86;99140.03;6082610;28;98252;-62
2022/10/31 14:00:26;;;;;;;;;13.50;12.00;;;;;30.75;27.31;99142.59;6099655;28;96588;-61
2022/10/31 14:03:31;;;;;;;;;12.00;12.00;;;;;30.70;27.47;99140.06;6097614;28;96435;-62
2022/10/31 14:06:59;;;;;;;;;11.60;10.60;;;;;30.42;27.51;99139.91;6083355;28;96347;-62
2022/10/31 14:10:06;;;;;;;;;13.00;11.00;;;;;30.23;27.56;99134.91;6085521;28;96327;-62
2022/10/31 14:13:19;;;;;;;;;13.80;11.00;;;;;30.08;28.09;99144.75;6095325;28;96333;-60
2022/10/31 14:16:26;;;;;;;;;13.50;11.25;;;;;29.85;28.57;99129.59;6107619;28;96690;-62
2022/10/31 14:19:29;;;;;;;;;14.00;12.00;;;;;29.66;29.18;99132.09;6087275;28;96658;-62
2022/10/31 14:22:34;;;;;;;;;13.00;11.00;;;;;29.44;29.11;99136.03;6088964;28;96722;-62
2022/10/31 14:25:44;;;;;;;;;12.20;11.00;;;;;29.13;30.00;99125.28;6077245;28;96869;-61
2022/10/31 14:28:50;;;;;;;;;12.40;12.20;;;;;28.82;30.28;99131.25;6075265;28;97073;-61
2022/10/31 14:31:56;;;;;;;;;14.00;12.40;;;;;28.53;30.91;99124.84;6086171;28;96975;-61
2022/10/31 14:35:00;;;;;;;;;13.00;13.00;;;;;28.29;31.31;99126.28;6097319;28;96450;-62
2022/10/31 14:38:30;;;;;;;;;13.00;11.40;;;;;28.07;31.72;99132.03;6080359;28;96688;-64
2022/10/31 14:41:49;;;;;;;;;14.00;12.00;;;;;27.87;32.27;99125.22;6098684;28;96831;-61
2022/10/31 14:45:07;;;;;;;;;15.00;12.00;;;;;27.71;32.36;99135.19;6083648;28;96560;-61